sensor_id;sensor_type;location;lat;lon;timestamp;temperature;humidity
32334;DHT22;18810;53.040;8.850;2023-02-28T00:00:18;5.70;99.90
32334;DHT22;18810;53.040;8.850;2023-02-28T00:02:45;5.60;99.90
32334;DHT22;18810;53.040;8.850;2023-02-28T00:05:13;5.60;99.90
32334;DHT22;18810;53.040;8.850;2023-02-28T00:07:39;5.60;99.90
32334;DHT22;18810;53.040;8.850;2023-02-28T00:10:06;5.60;99.90
32334;DHT22;18810;53.040;8.850;2023-02-28T00:12:33;5.60;99.90
32334;DHT22;18810;53.040;8.850;2023-02-28T00:14:59;5.60;99.90
32334;DHT22;18810;53.040;8.850;2023-02-28T00:17:25;5.50;99.90
32334;DHT22;18810;53.040;8.850;2023-02-28T00:19:51;5.40;99.90
32334;DHT22;18810;53.040;8.850;2023-02-28T00:22:18;5.40;99.90
32334;DHT22;18810;53.040;8.850;2023-02-28T00:24:45;5.40;99.90
32334;DHT22;18810;53.040;8.850;2023-02-28T00:27:11;5.40;99.90
32334;DHT22;18810;53.040;8.850;2023-02-28T00:29:37;5.40;99.90
32334;DHT22;18810;53.040;8.850;2023-02-28T00:32:04;5.40;99.90
32334;DHT22;18810;53.040;8.850;2023-02-28T00:34:30;5.50;99.90
32334;DHT22;18810;53.040;8.850;2023-02-28T00:36:56;5.50;99.90
32334;DHT22;18810;53.040;8.850;2023-02-28T00:39:21;5.50;99.90
32334;DHT22;18810;53.040;8.850;2023-02-28T00:41:47;5.50;99.90
32334;DHT22;18810;53.040;8.850;2023-02-28T00:44:13;5.50;99.90
32334;DHT22;18810;53.040;8.850;2023-02-28T00:46:38;5.40;99.90
32334;DHT22;18810;53.040;8.850;2023-02-28T00:49:04;5.40;99.90
32334;DHT22;18810;53.040;8.850;2023-02-28T00:51:30;5.30;99.90
32334;DHT22;18810;53.040;8.850;2023-02-28T00:53:56;5.20;99.90
32334;DHT22;18810;53.040;8.850;2023-02-28T00:56:21;5.10;99.90
32334;DHT22;18810;53.040;8.850;2023-02-28T00:58:47;5.10;99.90
32334;DHT22;18810;53.040;8.850;2023-02-28T01:01:13;5.00;99.90
32334;DHT22;18810;53.040;8.850;2023-02-28T01:03:38;5.00;99.90
32334;DHT22;18810;53.040;8.850;2023-02-28T01:06:04;5.00;99.90
32334;DHT22;18810;53.040;8.850;2023-02-28T01:08:30;5.10;99.90
32334;DHT22;18810;53.040;8.850;2023-02-28T01:10:56;5.00;99.90
32334;DHT22;18810;53.040;8.850;2023-02-28T01:13:22;5.10;99.90
32334;DHT22;18810;53.040;8.850;2023-02-28T01:15:55;5.10;99.90
32334;DHT22;18810;53.040;8.850;2023-02-28T01:18:21;5.00;99.90
32334;DHT22;18810;53.040;8.850;2023-02-28T01:20:48;5.00;99.90
32334;DHT22;18810;53.040;8.850;2023-02-28T01:23:14;4.90;99.90
32334;DHT22;18810;53.040;8.850;2023-02-28T01:25:40;4.80;99.90
32334;DHT22;18810;53.040;8.850;2023-02-28T01:28:06;4.70;99.90
32334;DHT22;18810;53.040;8.850;2023-02-28T01:30:32;4.70;99.90
32334;DHT22;18810;53.040;8.850;2023-02-28T01:32:58;4.70;99.90
32334;DHT22;18810;53.040;8.850;2023-02-28T01:35:23;4.70;99.90
32334;DHT22;18810;53.040;8.850;2023-02-28T01:37:49;4.80;99.90
32334;DHT22;18810;53.040;8.850;2023-02-28T01:40:15;4.70;99.90
32334;DHT22;18810;53.040;8.850;2023-02-28T01:42:41;4.60;99.90
32334;DHT22;18810;53.040;8.850;2023-02-28T01:45:27;4.60;99.90
32334;DHT22;18810;53.040;8.850;2023-02-28T01:47:57;4.50;99.90
32334;DHT22;18810;53.040;8.850;2023-02-28T01:50:28;4.50;99.90
32334;DHT22;18810;53.040;8.850;2023-02-28T01:52:56;4.50;99.90
32334;DHT22;18810;53.040;8.850;2023-02-28T01:55:23;4.60;99.90
32334;DHT22;18810;53.040;8.850;2023-02-28T01:57:52;4.60;99.90
32334;DHT22;18810;53.040;8.850;2023-02-28T02:00:22;4.50;99.90
32334;DHT22;18810;53.040;8.850;2023-02-28T02:02:51;4.50;99.90
32334;DHT22;18810;53.040;8.850;2023-02-28T02:05:24;4.50;99.90
32334;DHT22;18810;53.040;8.850;2023-02-28T02:07:54;4.50;99.90
32334;DHT22;18810;53.040;8.850;2023-02-28T02:10:40;4.60;99.90
32334;DHT22;18810;53.040;8.850;2023-02-28T02:13:29;4.70;99.90
32334;DHT22;18810;53.040;8.850;2023-02-28T02:30:31;4.10;99.90
32334;DHT22;18810;53.040;8.850;2023-02-28T02:38:36;4.20;99.90
32334;DHT22;18810;53.040;8.850;2023-02-28T02:41:18;4.10;99.90
32334;DHT22;18810;53.040;8.850;2023-02-28T02:46:44;4.10;99.90
32334;DHT22;18810;53.040;8.850;2023-02-28T02:49:19;4.10;99.90
32334;DHT22;18810;53.040;8.850;2023-02-28T02:51:47;4.10;99.90
32334;DHT22;18810;53.040;8.850;2023-02-28T02:54:21;4.00;99.90
32334;DHT22;18810;53.040;8.850;2023-02-28T02:56:51;4.00;99.90
32334;DHT22;18810;53.040;8.850;2023-02-28T02:59:20;3.70;99.90
32334;DHT22;18810;53.040;8.850;2023-02-28T03:01:54;3.60;99.90
32334;DHT22;18810;53.040;8.850;2023-02-28T03:04:22;3.50;99.90
32334;DHT22;18810;53.040;8.850;2023-02-28T03:06:50;3.60;99.90
32334;DHT22;18810;53.040;8.850;2023-02-28T03:09:24;3.60;99.90
32334;DHT22;18810;53.040;8.850;2023-02-28T03:11:53;3.60;99.90
32334;DHT22;18810;53.040;8.850;2023-02-28T03:18:03;3.50;99.90
32334;DHT22;18810;53.040;8.850;2023-02-28T03:20:51;3.40;99.90
32334;DHT22;18810;53.040;8.850;2023-02-28T03:23:21;3.20;99.90
32334;DHT22;18810;53.040;8.850;2023-02-28T03:26:02;3.10;99.90
32334;DHT22;18810;53.040;8.850;2023-02-28T03:31:18;3.20;99.90
32334;DHT22;18810;53.040;8.850;2023-02-28T03:33:54;3.20;99.90
32334;DHT22;18810;53.040;8.850;2023-02-28T03:36:36;3.10;99.90
32334;DHT22;18810;53.040;8.850;2023-02-28T03:39:17;3.10;99.90
32334;DHT22;18810;53.040;8.850;2023-02-28T03:41:58;3.10;99.90
32334;DHT22;18810;53.040;8.850;2023-02-28T03:44:34;3.00;99.90
32334;DHT22;18810;53.040;8.850;2023-02-28T03:47:10;2.90;99.90
32334;DHT22;18810;53.040;8.850;2023-02-28T03:49:46;2.90;99.90
32334;DHT22;18810;53.040;8.850;2023-02-28T03:52:17;2.90;99.90
32334;DHT22;18810;53.040;8.850;2023-02-28T03:54:46;2.80;99.90
32334;DHT22;18810;53.040;8.850;2023-02-28T03:59:49;2.70;99.90
32334;DHT22;18810;53.040;8.850;2023-02-28T04:02:18;2.60;99.90
32334;DHT22;18810;53.040;8.850;2023-02-28T04:04:44;2.50;99.90
32334;DHT22;18810;53.040;8.850;2023-02-28T04:07:11;2.40;99.90
32334;DHT22;18810;53.040;8.850;2023-02-28T04:09:37;2.30;99.90
32334;DHT22;18810;53.040;8.850;2023-02-28T04:12:03;2.20;99.90
32334;DHT22;18810;53.040;8.850;2023-02-28T04:14:29;2.30;99.90
32334;DHT22;18810;53.040;8.850;2023-02-28T04:16:55;2.30;99.90
32334;DHT22;18810;53.040;8.850;2023-02-28T04:19:20;2.30;99.90
32334;DHT22;18810;53.040;8.850;2023-02-28T04:21:51;2.30;99.90
32334;DHT22;18810;53.040;8.850;2023-02-28T04:24:21;2.30;99.90
32334;DHT22;18810;53.040;8.850;2023-02-28T04:26:50;2.40;99.90
32334;DHT22;18810;53.040;8.850;2023-02-28T04:29:24;2.40;99.90
32334;DHT22;18810;53.040;8.850;2023-02-28T04:31:50;2.40;99.90
32334;DHT22;18810;53.040;8.850;2023-02-28T04:34:16;2.40;99.90
32334;DHT22;18810;53.040;8.850;2023-02-28T04:36:42;2.50;99.90
32334;DHT22;18810;53.040;8.850;2023-02-28T04:39:08;2.50;99.90
32334;DHT22;18810;53.040;8.850;2023-02-28T04:41:35;2.40;99.90
32334;DHT22;18810;53.040;8.850;2023-02-28T04:44:00;2.40;99.90
32334;DHT22;18810;53.040;8.850;2023-02-28T04:46:26;2.50;99.90
32334;DHT22;18810;53.040;8.850;2023-02-28T04:48:52;2.30;99.90
32334;DHT22;18810;53.040;8.850;2023-02-28T04:51:19;2.40;99.90
32334;DHT22;18810;53.040;8.850;2023-02-28T04:53:46;2.30;99.90
32334;DHT22;18810;53.040;8.850;2023-02-28T04:56:14;2.20;99.90
32334;DHT22;18810;53.040;8.850;2023-02-28T04:58:40;2.10;99.90
32334;DHT22;18810;53.040;8.850;2023-02-28T05:01:28;2.10;99.90
32334;DHT22;18810;53.040;8.850;2023-02-28T05:03:56;2.00;99.90
32334;DHT22;18810;53.040;8.850;2023-02-28T05:06:26;2.00;99.90
32334;DHT22;18810;53.040;8.850;2023-02-28T05:08:52;1.90;99.90
32334;DHT22;18810;53.040;8.850;2023-02-28T05:11:27;1.90;99.90
32334;DHT22;18810;53.040;8.850;2023-02-28T05:13:57;1.80;99.90
32334;DHT22;18810;53.040;8.850;2023-02-28T05:16:23;1.80;99.90
32334;DHT22;18810;53.040;8.850;2023-02-28T05:18:49;1.70;99.90
32334;DHT22;18810;53.040;8.850;2023-02-28T05:21:36;1.70;99.90
32334;DHT22;18810;53.040;8.850;2023-02-28T05:24:11;1.60;99.90
32334;DHT22;18810;53.040;8.850;2023-02-28T05:26:39;1.60;99.90
32334;DHT22;18810;53.040;8.850;2023-02-28T05:29:05;1.60;99.90
32334;DHT22;18810;53.040;8.850;2023-02-28T05:31:31;1.60;99.90
32334;DHT22;18810;53.040;8.850;2023-02-28T05:34:00;1.50;99.90
32334;DHT22;18810;53.040;8.850;2023-02-28T05:36:26;1.40;99.90
32334;DHT22;18810;53.040;8.850;2023-02-28T05:38:52;1.40;99.90
32334;DHT22;18810;53.040;8.850;2023-02-28T05:41:18;1.40;99.90
32334;DHT22;18810;53.040;8.850;2023-02-28T05:43:47;1.50;99.90
32334;DHT22;18810;53.040;8.850;2023-02-28T05:46:14;1.40;99.90
32334;DHT22;18810;53.040;8.850;2023-02-28T05:48:41;1.40;99.90
32334;DHT22;18810;53.040;8.850;2023-02-28T05:51:08;1.40;99.90
32334;DHT22;18810;53.040;8.850;2023-02-28T05:53:34;1.30;99.90
32334;DHT22;18810;53.040;8.850;2023-02-28T05:56:00;1.20;99.90
32334;DHT22;18810;53.040;8.850;2023-02-28T05:58:27;1.10;99.90
32334;DHT22;18810;53.040;8.850;2023-02-28T06:01:00;1.00;99.90
32334;DHT22;18810;53.040;8.850;2023-02-28T06:03:27;0.90;99.90
32334;DHT22;18810;53.040;8.850;2023-02-28T06:05:53;0.90;99.90
32334;DHT22;18810;53.040;8.850;2023-02-28T06:08:19;0.90;99.90
32334;DHT22;18810;53.040;8.850;2023-02-28T06:10:45;0.90;99.90
32334;DHT22;18810;53.040;8.850;2023-02-28T06:13:11;0.90;99.90
32334;DHT22;18810;53.040;8.850;2023-02-28T06:15:38;0.90;99.90
32334;DHT22;18810;53.040;8.850;2023-02-28T06:18:04;1.00;99.90
32334;DHT22;18810;53.040;8.850;2023-02-28T06:20:30;0.90;99.90
32334;DHT22;18810;53.040;8.850;2023-02-28T06:22:59;0.70;99.90
32334;DHT22;18810;53.040;8.850;2023-02-28T06:25:26;0.90;99.90
32334;DHT22;18810;53.040;8.850;2023-02-28T06:27:52;1.00;99.90
32334;DHT22;18810;53.040;8.850;2023-02-28T06:30:17;1.00;99.90
32334;DHT22;18810;53.040;8.850;2023-02-28T06:32:43;1.00;99.90
32334;DHT22;18810;53.040;8.850;2023-02-28T06:35:09;1.00;99.90
32334;DHT22;18810;53.040;8.850;2023-02-28T06:37:38;1.00;99.90
32334;DHT22;18810;53.040;8.850;2023-02-28T06:40:04;1.10;99.90
32334;DHT22;18810;53.040;8.850;2023-02-28T06:42:32;1.10;99.90
32334;DHT22;18810;53.040;8.850;2023-02-28T06:44:58;1.20;99.90
32334;DHT22;18810;53.040;8.850;2023-02-28T06:47:24;1.30;99.90
32334;DHT22;18810;53.040;8.850;2023-02-28T06:49:49;1.40;99.90
32334;DHT22;18810;53.040;8.850;2023-02-28T06:52:15;1.40;99.90
32334;DHT22;18810;53.040;8.850;2023-02-28T06:54:41;1.40;99.90
32334;DHT22;18810;53.040;8.850;2023-02-28T06:57:07;1.50;99.90
32334;DHT22;18810;53.040;8.850;2023-02-28T06:59:33;1.70;99.90
32334;DHT22;18810;53.040;8.850;2023-02-28T07:02:00;1.80;99.90
32334;DHT22;18810;53.040;8.850;2023-02-28T07:04:28;1.80;99.90
32334;DHT22;18810;53.040;8.850;2023-02-28T07:06:54;1.90;99.90
32334;DHT22;18810;53.040;8.850;2023-02-28T07:09:22;1.90;99.90
32334;DHT22;18810;53.040;8.850;2023-02-28T07:11:48;2.10;99.90
32334;DHT22;18810;53.040;8.850;2023-02-28T07:14:14;2.20;99.90
32334;DHT22;18810;53.040;8.850;2023-02-28T07:16:39;2.30;99.90
32334;DHT22;18810;53.040;8.850;2023-02-28T07:19:05;2.40;99.90
32334;DHT22;18810;53.040;8.850;2023-02-28T07:21:31;2.50;99.90
32334;DHT22;18810;53.040;8.850;2023-02-28T07:23:57;2.70;99.90
32334;DHT22;18810;53.040;8.850;2023-02-28T07:26:23;2.70;99.90
32334;DHT22;18810;53.040;8.850;2023-02-28T07:28:49;3.00;99.90
32334;DHT22;18810;53.040;8.850;2023-02-28T07:31:16;3.30;99.90
32334;DHT22;18810;53.040;8.850;2023-02-28T07:33:43;3.40;99.90
32334;DHT22;18810;53.040;8.850;2023-02-28T07:36:12;3.60;99.90
32334;DHT22;18810;53.040;8.850;2023-02-28T07:38:42;3.70;99.90
32334;DHT22;18810;53.040;8.850;2023-02-28T07:41:09;3.90;99.90
32334;DHT22;18810;53.040;8.850;2023-02-28T07:43:35;4.00;99.90
32334;DHT22;18810;53.040;8.850;2023-02-28T07:46:07;4.20;99.90
32334;DHT22;18810;53.040;8.850;2023-02-28T07:48:32;4.50;99.90
32334;DHT22;18810;53.040;8.850;2023-02-28T07:50:59;4.60;99.90
32334;DHT22;18810;53.040;8.850;2023-02-28T07:53:26;4.70;99.90
32334;DHT22;18810;53.040;8.850;2023-02-28T07:55:58;4.90;99.90
32334;DHT22;18810;53.040;8.850;2023-02-28T07:58:25;5.10;99.90
32334;DHT22;18810;53.040;8.850;2023-02-28T08:00:51;5.20;99.90
32334;DHT22;18810;53.040;8.850;2023-02-28T08:03:21;5.40;99.90
32334;DHT22;18810;53.040;8.850;2023-02-28T08:05:48;5.50;99.90
32334;DHT22;18810;53.040;8.850;2023-02-28T08:08:17;5.80;99.90
32334;DHT22;18810;53.040;8.850;2023-02-28T08:10:42;5.90;99.90
32334;DHT22;18810;53.040;8.850;2023-02-28T08:13:08;6.10;99.90
32334;DHT22;18810;53.040;8.850;2023-02-28T08:15:34;6.20;99.90
32334;DHT22;18810;53.040;8.850;2023-02-28T08:18:00;6.30;99.90
32334;DHT22;18810;53.040;8.850;2023-02-28T08:20:26;6.60;99.90
32334;DHT22;18810;53.040;8.850;2023-02-28T08:22:52;6.80;99.90
32334;DHT22;18810;53.040;8.850;2023-02-28T08:25:18;6.70;99.90
32334;DHT22;18810;53.040;8.850;2023-02-28T08:27:44;6.60;99.90
32334;DHT22;18810;53.040;8.850;2023-02-28T08:30:14;6.50;99.90
32334;DHT22;18810;53.040;8.850;2023-02-28T08:32:40;6.90;99.90
32334;DHT22;18810;53.040;8.850;2023-02-28T08:35:07;7.00;99.90
32334;DHT22;18810;53.040;8.850;2023-02-28T08:37:34;7.20;99.90
32334;DHT22;18810;53.040;8.850;2023-02-28T08:40:00;7.40;99.90
32334;DHT22;18810;53.040;8.850;2023-02-28T08:42:26;7.50;99.90
32334;DHT22;18810;53.040;8.850;2023-02-28T08:44:51;7.30;99.90
32334;DHT22;18810;53.040;8.850;2023-02-28T08:47:17;7.40;99.90
32334;DHT22;18810;53.040;8.850;2023-02-28T08:49:43;7.40;99.90
32334;DHT22;18810;53.040;8.850;2023-02-28T08:52:09;7.70;99.90
32334;DHT22;18810;53.040;8.850;2023-02-28T08:54:35;8.00;99.60
32334;DHT22;18810;53.040;8.850;2023-02-28T08:57:02;8.00;99.10
32334;DHT22;18810;53.040;8.850;2023-02-28T08:59:29;8.00;98.00
32334;DHT22;18810;53.040;8.850;2023-02-28T09:01:55;8.10;97.00
32334;DHT22;18810;53.040;8.850;2023-02-28T09:04:21;8.20;96.30
32334;DHT22;18810;53.040;8.850;2023-02-28T09:06:46;8.50;96.60
32334;DHT22;18810;53.040;8.850;2023-02-28T09:09:14;8.70;95.10
32334;DHT22;18810;53.040;8.850;2023-02-28T09:11:40;8.80;95.40
32334;DHT22;18810;53.040;8.850;2023-02-28T09:14:06;8.90;95.30
32334;DHT22;18810;53.040;8.850;2023-02-28T09:16:33;8.50;95.50
32334;DHT22;18810;53.040;8.850;2023-02-28T09:18:58;8.60;95.70
32334;DHT22;18810;53.040;8.850;2023-02-28T09:21:24;8.90;94.90
32334;DHT22;18810;53.040;8.850;2023-02-28T09:23:51;9.20;94.40
32334;DHT22;18810;53.040;8.850;2023-02-28T09:26:24;9.40;94.50
32334;DHT22;18810;53.040;8.850;2023-02-28T09:28:53;10.00;93.60
32334;DHT22;18810;53.040;8.850;2023-02-28T09:31:25;10.10;93.30
32334;DHT22;18810;53.040;8.850;2023-02-28T09:33:53;10.30;92.80
32334;DHT22;18810;53.040;8.850;2023-02-28T09:36:19;10.60;92.30
32334;DHT22;18810;53.040;8.850;2023-02-28T09:38:45;10.60;91.60
32334;DHT22;18810;53.040;8.850;2023-02-28T09:41:24;10.50;91.00
32334;DHT22;18810;53.040;8.850;2023-02-28T09:44:01;10.90;90.40
32334;DHT22;18810;53.040;8.850;2023-02-28T09:46:47;10.80;89.90
32334;DHT22;18810;53.040;8.850;2023-02-28T09:49:19;11.30;90.00
32334;DHT22;18810;53.040;8.850;2023-02-28T09:51:56;11.80;89.00
32334;DHT22;18810;53.040;8.850;2023-02-28T09:54:26;11.90;87.70
32334;DHT22;18810;53.040;8.850;2023-02-28T10:05:28;11.90;84.80
32334;DHT22;18810;53.040;8.850;2023-02-28T10:08:03;12.50;84.80
32334;DHT22;18810;53.040;8.850;2023-02-28T10:10:45;12.90;83.00
32334;DHT22;18810;53.040;8.850;2023-02-28T10:16:01;12.60;80.40
32334;DHT22;18810;53.040;8.850;2023-02-28T10:18:33;12.50;80.20
32334;DHT22;18810;53.040;8.850;2023-02-28T10:21:03;12.70;80.50
32334;DHT22;18810;53.040;8.850;2023-02-28T10:23:34;12.90;78.90
32334;DHT22;18810;53.040;8.850;2023-02-28T10:26:24;12.60;79.00
32334;DHT22;18810;53.040;8.850;2023-02-28T10:28:53;13.00;77.60
32334;DHT22;18810;53.040;8.850;2023-02-28T10:31:19;12.90;78.30
32334;DHT22;18810;53.040;8.850;2023-02-28T10:33:46;12.50;78.00
32334;DHT22;18810;53.040;8.850;2023-02-28T10:36:15;12.70;78.70
32334;DHT22;18810;53.040;8.850;2023-02-28T10:38:43;12.30;79.00
32334;DHT22;18810;53.040;8.850;2023-02-28T10:41:26;12.30;78.90
32334;DHT22;18810;53.040;8.850;2023-02-28T10:43:53;12.90;79.00
32334;DHT22;18810;53.040;8.850;2023-02-28T10:46:40;13.60;77.10
32334;DHT22;18810;53.040;8.850;2023-02-28T10:49:29;13.80;76.70
32334;DHT22;18810;53.040;8.850;2023-02-28T10:51:59;13.70;75.90
32334;DHT22;18810;53.040;8.850;2023-02-28T10:54:36;13.10;76.90
32334;DHT22;18810;53.040;8.850;2023-02-28T10:59:32;12.40;78.30
32334;DHT22;18810;53.040;8.850;2023-02-28T11:01:58;12.20;78.50
32334;DHT22;18810;53.040;8.850;2023-02-28T11:07:03;12.80;78.10
32334;DHT22;18810;53.040;8.850;2023-02-28T11:09:35;12.80;77.90
32334;DHT22;18810;53.040;8.850;2023-02-28T11:12:07;13.30;76.80
32334;DHT22;18810;53.040;8.850;2023-02-28T11:14:49;13.70;76.30
32334;DHT22;18810;53.040;8.850;2023-02-28T11:17:25;13.60;75.30
32334;DHT22;18810;53.040;8.850;2023-02-28T11:19:58;13.40;76.10
32334;DHT22;18810;53.040;8.850;2023-02-28T11:22:30;12.40;77.20
32334;DHT22;18810;53.040;8.850;2023-02-28T11:25:00;12.80;77.40
32334;DHT22;18810;53.040;8.850;2023-02-28T11:27:49;13.10;76.00
32334;DHT22;18810;53.040;8.850;2023-02-28T11:30:32;13.60;76.70
32334;DHT22;18810;53.040;8.850;2023-02-28T11:32:59;14.10;73.00
32334;DHT22;18810;53.040;8.850;2023-02-28T11:35:33;13.50;74.50
32334;DHT22;18810;53.040;8.850;2023-02-28T11:38:02;13.90;74.10
32334;DHT22;18810;53.040;8.850;2023-02-28T11:40:30;14.30;72.50
32334;DHT22;18810;53.040;8.850;2023-02-28T11:43:06;14.40;71.00
32334;DHT22;18810;53.040;8.850;2023-02-28T11:56:33;15.10;69.20
32334;DHT22;18810;53.040;8.850;2023-02-28T12:02:58;15.50;69.00
32334;DHT22;18810;53.040;8.850;2023-02-28T12:05:25;15.80;67.50
32334;DHT22;18810;53.040;8.850;2023-02-28T12:22:12;15.80;65.90
32334;DHT22;18810;53.040;8.850;2023-02-28T12:27:21;17.50;65.10
32334;DHT22;18810;53.040;8.850;2023-02-28T12:29:55;18.90;62.80
32334;DHT22;18810;53.040;8.850;2023-02-28T12:32:36;18.90;59.30
32334;DHT22;18810;53.040;8.850;2023-02-28T12:35:13;18.30;59.60
32334;DHT22;18810;53.040;8.850;2023-02-28T12:37:49;18.40;60.60
32334;DHT22;18810;53.040;8.850;2023-02-28T12:40:23;19.10;58.70
32334;DHT22;18810;53.040;8.850;2023-02-28T12:42:58;19.10;58.10
32334;DHT22;18810;53.040;8.850;2023-02-28T12:45:53;19.00;59.00
32334;DHT22;18810;53.040;8.850;2023-02-28T12:48:29;19.30;58.50
32334;DHT22;18810;53.040;8.850;2023-02-28T12:50:57;19.10;57.90
32334;DHT22;18810;53.040;8.850;2023-02-28T12:56:31;20.20;57.10
32334;DHT22;18810;53.040;8.850;2023-02-28T12:59:27;20.50;55.20
32334;DHT22;18810;53.040;8.850;2023-02-28T13:07:30;20.00;54.00
32334;DHT22;18810;53.040;8.850;2023-02-28T13:10:00;20.40;54.50
32334;DHT22;18810;53.040;8.850;2023-02-28T13:12:28;20.30;53.90
32334;DHT22;18810;53.040;8.850;2023-02-28T13:15:26;19.10;55.20
32334;DHT22;18810;53.040;8.850;2023-02-28T13:17:56;18.40;54.60
32334;DHT22;18810;53.040;8.850;2023-02-28T13:20:26;17.80;54.70
32334;DHT22;18810;53.040;8.850;2023-02-28T13:22:54;17.90;55.30
32334;DHT22;18810;53.040;8.850;2023-02-28T13:28:12;19.00;53.00
32334;DHT22;18810;53.040;8.850;2023-02-28T13:33:33;17.40;56.90
32334;DHT22;18810;53.040;8.850;2023-02-28T13:38:43;17.00;55.70
32334;DHT22;18810;53.040;8.850;2023-02-28T13:44:17;17.20;55.30
32334;DHT22;18810;53.040;8.850;2023-02-28T13:49:26;17.50;55.40
32334;DHT22;18810;53.040;8.850;2023-02-28T13:57:38;18.00;54.10
32334;DHT22;18810;53.040;8.850;2023-02-28T14:06:10;17.90;53.50
32334;DHT22;18810;53.040;8.850;2023-02-28T14:09:33;17.90;54.30
32334;DHT22;18810;53.040;8.850;2023-02-28T14:11:38;17.60;53.40
32334;DHT22;18810;53.040;8.850;2023-02-28T14:14:05;17.60;53.60
32334;DHT22;18810;53.040;8.850;2023-02-28T14:16:46;17.60;52.50
32334;DHT22;18810;53.040;8.850;2023-02-28T14:19:19;17.30;52.80
32334;DHT22;18810;53.040;8.850;2023-02-28T14:27:21;17.80;53.30
32334;DHT22;18810;53.040;8.850;2023-02-28T14:30:26;18.20;52.80
32334;DHT22;18810;53.040;8.850;2023-02-28T14:38:14;18.90;51.10
32334;DHT22;18810;53.040;8.850;2023-02-28T14:40:42;17.70;52.30
32334;DHT22;18810;53.040;8.850;2023-02-28T14:43:23;17.00;53.10
32334;DHT22;18810;53.040;8.850;2023-02-28T14:45:51;17.00;52.90
32334;DHT22;18810;53.040;8.850;2023-02-28T14:48:19;17.70;52.50
32334;DHT22;18810;53.040;8.850;2023-02-28T14:50:51;18.10;51.50
32334;DHT22;18810;53.040;8.850;2023-02-28T14:53:22;18.20;51.90
32334;DHT22;18810;53.040;8.850;2023-02-28T14:55:49;18.40;52.70
32334;DHT22;18810;53.040;8.850;2023-02-28T14:58:31;18.00;51.90
32334;DHT22;18810;53.040;8.850;2023-02-28T15:00:59;18.70;51.60
32334;DHT22;18810;53.040;8.850;2023-02-28T15:06:05;19.20;49.60
32334;DHT22;18810;53.040;8.850;2023-02-28T15:08:31;19.10;50.30
32334;DHT22;18810;53.040;8.850;2023-02-28T15:16:13;19.00;50.10
32334;DHT22;18810;53.040;8.850;2023-02-28T15:21:26;18.10;51.50
32334;DHT22;18810;53.040;8.850;2023-02-28T15:24:07;18.00;52.20
32334;DHT22;18810;53.040;8.850;2023-02-28T15:26:36;18.30;51.80
32334;DHT22;18810;53.040;8.850;2023-02-28T15:29:19;18.30;52.20
32334;DHT22;18810;53.040;8.850;2023-02-28T15:31:49;18.40;51.80
32334;DHT22;18810;53.040;8.850;2023-02-28T15:34:21;18.10;52.30
32334;DHT22;18810;53.040;8.850;2023-02-28T15:36:47;17.90;52.90
32334;DHT22;18810;53.040;8.850;2023-02-28T15:39:19;17.90;52.40
32334;DHT22;18810;53.040;8.850;2023-02-28T15:41:45;17.60;53.00
32334;DHT22;18810;53.040;8.850;2023-02-28T15:49:49;16.70;53.90
32334;DHT22;18810;53.040;8.850;2023-02-28T15:54:53;16.50;54.80
32334;DHT22;18810;53.040;8.850;2023-02-28T15:57:24;15.90;56.10
32334;DHT22;18810;53.040;8.850;2023-02-28T16:00:00;15.70;56.50
32334;DHT22;18810;53.040;8.850;2023-02-28T16:02:34;15.60;56.80
32334;DHT22;18810;53.040;8.850;2023-02-28T16:07:35;15.40;56.10
32334;DHT22;18810;53.040;8.850;2023-02-28T16:10:02;15.20;56.40
32334;DHT22;18810;53.040;8.850;2023-02-28T16:12:30;14.90;57.30
32334;DHT22;18810;53.040;8.850;2023-02-28T16:14:58;14.80;57.80
32334;DHT22;18810;53.040;8.850;2023-02-28T16:17:27;14.70;58.60
32334;DHT22;18810;53.040;8.850;2023-02-28T16:19:54;14.60;58.50
32334;DHT22;18810;53.040;8.850;2023-02-28T16:22:20;14.40;58.50
32334;DHT22;18810;53.040;8.850;2023-02-28T16:24:45;14.20;58.70
32334;DHT22;18810;53.040;8.850;2023-02-28T16:27:28;13.70;59.70
32334;DHT22;18810;53.040;8.850;2023-02-28T16:29:55;13.10;60.80
32334;DHT22;18810;53.040;8.850;2023-02-28T16:32:21;12.80;62.30
32334;DHT22;18810;53.040;8.850;2023-02-28T16:34:47;12.60;62.40
32334;DHT22;18810;53.040;8.850;2023-02-28T16:37:15;12.50;63.60
32334;DHT22;18810;53.040;8.850;2023-02-28T16:39:41;12.40;63.90
32334;DHT22;18810;53.040;8.850;2023-02-28T16:42:29;12.10;64.60
32334;DHT22;18810;53.040;8.850;2023-02-28T16:44:56;11.80;65.80
32334;DHT22;18810;53.040;8.850;2023-02-28T16:47:23;11.60;66.70
32334;DHT22;18810;53.040;8.850;2023-02-28T16:49:49;11.50;66.70
32334;DHT22;18810;53.040;8.850;2023-02-28T16:52:15;11.30;67.90
32334;DHT22;18810;53.040;8.850;2023-02-28T16:54:41;11.10;68.60
32334;DHT22;18810;53.040;8.850;2023-02-28T16:57:19;11.00;69.00
32334;DHT22;18810;53.040;8.850;2023-02-28T16:59:45;10.90;69.30
32334;DHT22;18810;53.040;8.850;2023-02-28T17:02:14;10.80;70.00
32334;DHT22;18810;53.040;8.850;2023-02-28T17:04:40;10.70;71.00
32334;DHT22;18810;53.040;8.850;2023-02-28T17:07:11;10.60;71.40
32334;DHT22;18810;53.040;8.850;2023-02-28T17:09:38;10.40;71.60
32334;DHT22;18810;53.040;8.850;2023-02-28T17:12:04;10.30;72.00
32334;DHT22;18810;53.040;8.850;2023-02-28T17:14:29;10.20;72.50
32334;DHT22;18810;53.040;8.850;2023-02-28T17:16:55;10.10;73.20
32334;DHT22;18810;53.040;8.850;2023-02-28T17:19:21;10.00;73.80
32334;DHT22;18810;53.040;8.850;2023-02-28T17:21:47;9.90;74.40
32334;DHT22;18810;53.040;8.850;2023-02-28T17:24:12;9.90;74.80
32334;DHT22;18810;53.040;8.850;2023-02-28T17:26:42;9.70;76.50
32334;DHT22;18810;53.040;8.850;2023-02-28T17:29:26;9.60;75.30
32334;DHT22;18810;53.040;8.850;2023-02-28T17:31:52;9.50;75.90
32334;DHT22;18810;53.040;8.850;2023-02-28T17:34:17;9.30;76.90
32334;DHT22;18810;53.040;8.850;2023-02-28T17:36:45;9.20;77.10
32334;DHT22;18810;53.040;8.850;2023-02-28T17:39:13;9.10;77.80
32334;DHT22;18810;53.040;8.850;2023-02-28T17:41:45;8.90;78.20
32334;DHT22;18810;53.040;8.850;2023-02-28T17:44:11;8.80;79.40
32334;DHT22;18810;53.040;8.850;2023-02-28T17:46:37;8.70;80.50
32334;DHT22;18810;53.040;8.850;2023-02-28T17:49:03;8.70;79.40
32334;DHT22;18810;53.040;8.850;2023-02-28T17:51:29;8.70;79.70
32334;DHT22;18810;53.040;8.850;2023-02-28T17:53:54;8.60;80.00
32334;DHT22;18810;53.040;8.850;2023-02-28T17:56:22;8.70;82.60
32334;DHT22;18810;53.040;8.850;2023-02-28T17:58:52;8.40;81.90
32334;DHT22;18810;53.040;8.850;2023-02-28T18:01:19;8.30;82.00
32334;DHT22;18810;53.040;8.850;2023-02-28T18:03:46;8.20;82.70
32334;DHT22;18810;53.040;8.850;2023-02-28T18:06:23;8.20;83.30
32334;DHT22;18810;53.040;8.850;2023-02-28T18:08:49;8.10;83.70
32334;DHT22;18810;53.040;8.850;2023-02-28T18:11:18;8.00;84.20
32334;DHT22;18810;53.040;8.850;2023-02-28T18:13:49;7.90;84.70
32334;DHT22;18810;53.040;8.850;2023-02-28T18:16:15;7.80;84.90
32334;DHT22;18810;53.040;8.850;2023-02-28T18:18:41;7.60;85.50
32334;DHT22;18810;53.040;8.850;2023-02-28T18:21:09;7.50;86.20